Time;durP1;ratioP1;P1;durP2;ratioP2;P2;SDS_P1;SDS_P2;PMS_P1;PMS_P2;Temp;Humidity;BMP_temperature;BMP_pressure;BME280_temperature;BME280_humidity;BME280_pressure;Samples;Min_cycle;Max_cycle;Signal;HPM_P1;HPM_P2
2022/06/17 00:00:52;;;;;;;;;;;;;;;20.08;46.74;100624.50;123769;1098;104277;-79
2022/06/17 00:03:22;;;;;;;;;;;;;;;20.08;46.88;100620.97;123603;1099;104251;-79
2022/06/17 00:05:53;;;;;;;;;;;;;;;20.07;46.32;100622.75;123828;1099;104283;-78
2022/06/17 00:08:25;;;;;;;;;;;;;;;20.07;46.60;100617.42;123608;1099;104249;-78
2022/06/17 00:10:55;;;;;;;;;;;;;;;20.05;46.55;100611.19;123383;1099;104684;-79
2022/06/17 00:13:25;;;;;;;;;;;;;;;20.04;46.52;100614.77;123504;1099;104277;-79
2022/06/17 00:15:55;;;;;;;;;;;;;;;20.03;47.05;100618.31;123585;1099;104277;-78
2022/06/17 00:18:25;;;;;;;;;;;;;;;20.00;46.58;100618.31;123663;1099;104277;-78
2022/06/17 00:20:55;;;;;;;;;;;;;;;19.99;47.02;100621.89;123700;1099;104274;-79
2022/06/17 00:23:25;;;;;;;;;;;;;;;20.01;46.36;100609.45;123645;1099;104281;-79
2022/06/17 00:25:55;;;;;;;;;;;;;;;20.03;46.85;100604.12;123485;1098;104277;-78
2022/06/17 00:28:25;;;;;;;;;;;;;;;20.03;46.99;100597.00;123512;1099;104396;-78
2022/06/17 00:30:54;;;;;;;;;;;;;;;20.00;46.89;100590.80;123619;1099;104757;-80
2022/06/17 00:33:24;;;;;;;;;;;;;;;20.00;47.43;100597.01;123516;1099;104297;-79
2022/06/17 00:35:55;;;;;;;;;;;;;;;19.98;46.56;100589.93;123417;1099;104223;-78
2022/06/17 00:38:26;;;;;;;;;;;;;;;19.99;47.00;100597.01;123614;1099;104351;-80
2022/06/17 00:40:58;;;;;;;;;;;;;;;19.97;47.17;100591.69;123958;1099;104268;-79
2022/06/17 00:43:31;;;;;;;;;;;;;;;20.00;47.47;100597.01;123761;1099;104355;-79
2022/06/17 00:46:07;;;;;;;;;;;;;;;20.03;47.07;100594.34;123693;1099;104261;-78
2022/06/17 00:48:40;;;;;;;;;;;;;;;20.03;47.98;100594.34;123322;1099;104258;-78
2022/06/17 00:51:15;;;;;;;;;;;;;;;19.92;48.13;100594.35;123401;1099;104242;-79
2022/06/17 00:53:47;;;;;;;;;;;;;;;19.80;48.21;100599.69;123437;1099;104364;-79
2022/06/17 00:56:21;;;;;;;;;;;;;;;19.78;48.01;100595.27;123434;1099;104299;-78
2022/06/17 00:58:59;;;;;;;;;;;;;;;19.77;48.63;100586.37;123582;1099;104169;-78
2022/06/17 01:01:30;;;;;;;;;;;;;;;19.77;48.61;100582.84;123373;1099;104800;-78
2022/06/17 01:04:01;;;;;;;;;;;;;;;19.73;48.17;100576.61;123405;1099;104239;-78
2022/06/17 01:06:35;;;;;;;;;;;;;;;19.72;48.60;100577.48;123407;1099;104323;-78
2022/06/17 01:11:55;;;;;;;;;;;;;;;19.74;48.50;100579.27;123352;1099;104341;-78
2022/06/17 01:14:26;;;;;;;;;;;;;;;19.75;48.35;100580.14;123611;1098;104264;-78
2022/06/17 01:16:56;;;;;;;;;;;;;;;19.78;48.95;100573.97;123372;1100;104299;-79
2022/06/17 01:19:33;;;;;;;;;;;;;;;19.80;48.73;100566.86;123592;1099;106961;-79
2022/06/17 01:22:16;;;;;;;;;;;;;;;19.81;48.29;100568.64;123425;1099;104252;-78
2022/06/17 01:24:46;;;;;;;;;;;;;;;19.76;47.96;100565.95;123625;1099;104306;-78
2022/06/17 01:27:17;;;;;;;;;;;;;;;19.83;47.96;100574.84;123415;1099;104434;-79
2022/06/17 01:29:48;;;;;;;;;;;;;;;19.83;48.76;100572.19;123504;1099;118199;-79
2022/06/17 01:32:20;;;;;;;;;;;;;;;19.85;48.82;100573.97;123473;1099;104252;-78
2022/06/17 01:34:50;;;;;;;;;;;;;;;19.88;48.55;100570.39;123576;1099;104268;-79
2022/06/17 01:37:20;;;;;;;;;;;;;;;19.88;48.22;100567.73;123444;1099;104399;-79
2022/06/17 01:39:50;;;;;;;;;;;;;;;19.88;49.16;100573.96;123428;1099;104332;-78
2022/06/17 01:42:21;;;;;;;;;;;;;;;19.87;48.63;100558.86;123570;1099;104255;-78
2022/06/17 01:44:54;;;;;;;;;;;;;;;19.86;48.63;100558.87;123340;1099;104363;-78
2022/06/17 01:47:25;;;;;;;;;;;;;;;19.79;48.92;100543.78;123642;1099;104319;-78
2022/06/17 01:49:57;;;;;;;;;;;;;;;19.84;49.06;100547.34;123361;1099;104290;-79
2022/06/17 01:52:32;;;;;;;;;;;;;;;19.84;49.17;100545.55;123716;1098;104297;-77
2022/06/17 01:55:08;;;;;;;;;;;;;;;19.82;49.40;100546.44;123505;1099;104246;-78
2022/06/17 01:57:41;;;;;;;;;;;;;;;19.79;49.96;100549.10;123430;1099;104277;-79
2022/06/17 02:00:15;;;;;;;;;;;;;;;19.75;49.99;100546.41;123782;1099;104542;-78
2022/06/17 02:02:46;;;;;;;;;;;;;;;19.73;50.12;100549.98;123806;1098;104245;-78
2022/06/17 02:05:16;;;;;;;;;;;;;;;19.73;49.49;100542.00;123707;1099;104325;-79
2022/06/17 02:07:52;;;;;;;;;;;;;;;19.74;50.81;100555.31;123781;1099;104220;-79
2022/06/17 02:10:22;;;;;;;;;;;;;;;19.73;50.36;100547.32;123572;1102;104302;-79
2022/06/17 02:12:55;;;;;;;;;;;;;;;19.74;50.01;100546.41;123425;1102;104374;-79
2022/06/17 02:15:27;;;;;;;;;;;;;;;19.76;50.19;100549.98;123482;1102;104450;-79
2022/06/17 02:18:26;;;;;;;;;;;;;;;19.77;50.12;100545.56;123220;1102;104182;-79
2022/06/17 02:21:08;;;;;;;;;;;;;;;19.77;50.27;100548.23;123502;1102;117811;-78
2022/06/17 02:23:38;;;;;;;;;;;;;;;19.74;50.93;100547.32;123393;1102;104402;-78
2022/06/17 02:26:12;;;;;;;;;;;;;;;19.74;50.51;100535.77;123595;1100;104245;-78
2022/06/17 02:29:09;;;;;;;;;;;;;;;19.76;50.39;100542.00;123863;1102;104351;-78
2022/06/17 02:31:43;;;;;;;;;;;;;;;19.76;50.80;100544.66;123241;1100;104454;-78
2022/06/17 02:34:14;;;;;;;;;;;;;;;19.79;50.87;100544.69;123352;1102;104268;-78
2022/06/17 02:36:47;;;;;;;;;;;;;;;19.82;50.71;100538.45;123330;1102;104562;-78
2022/06/17 02:39:17;;;;;;;;;;;;;;;19.84;50.33;100548.22;123314;1102;104336;-78
2022/06/17 02:41:48;;;;;;;;;;;;;;;19.86;50.85;100545.55;123348;1102;104434;-78
2022/06/17 02:44:21;;;;;;;;;;;;;;;19.90;50.94;100542.01;123457;1102;104416;-79
2022/06/17 02:46:53;;;;;;;;;;;;;;;19.89;50.81;100545.55;123341;1102;104456;-77
2022/06/17 02:49:25;;;;;;;;;;;;;;;19.92;50.74;100545.55;123472;1099;104306;-78
2022/06/17 02:51:55;;;;;;;;;;;;;;;19.95;50.86;100545.53;123555;1099;104428;-78
2022/06/17 02:54:30;;;;;;;;;;;;;;;19.99;50.50;100541.08;123664;1099;104197;-78
2022/06/17 02:57:03;;;;;;;;;;;;;;;20.01;51.07;100549.97;123444;1099;104239;-78
2022/06/17 02:59:48;;;;;;;;;;;;;;;20.05;51.08;100549.94;123815;1099;104261;-78
2022/06/17 03:02:34;;;;;;;;;;;;;;;20.06;50.58;100549.05;123504;1099;104370;-79
2022/06/17 03:05:14;;;;;;;;;;;;;;;20.08;50.66;100547.27;123360;1099;104644;-78
2022/06/17 03:07:44;;;;;;;;;;;;;;;20.14;51.51;100548.16;123315;1100;104319;-78
2022/06/17 03:10:29;;;;;;;;;;;;;;;20.18;50.62;100541.91;123396;1099;104271;-78
2022/06/17 03:13:03;;;;;;;;;;;;;;;20.20;51.66;100541.02;123461;1099;104703;-77
2022/06/17 03:15:33;;;;;;;;;;;;;;;20.20;51.40;100540.15;123594;1099;104293;-78
2022/06/17 03:18:03;;;;;;;;;;;;;;;20.21;51.52;100536.57;123541;1102;104342;-77
2022/06/17 03:20:34;;;;;;;;;;;;;;;20.22;51.76;100541.02;123528;1103;104268;-78
2022/06/17 03:23:07;;;;;;;;;;;;;;;20.22;51.57;100544.56;123645;1102;104357;-78
2022/06/17 03:25:41;;;;;;;;;;;;;;;20.21;51.28;100534.81;123667;1100;104341;-78
2022/06/17 03:28:13;;;;;;;;;;;;;;;20.21;51.33;100531.24;123488;1102;104425;-78
2022/06/17 03:30:46;;;;;;;;;;;;;;;20.24;51.56;100525.91;123391;1102;104431;-78
2022/06/17 03:33:18;;;;;;;;;;;;;;;20.24;52.29;100525.91;123340;1102;104424;-77
2022/06/17 03:35:51;;;;;;;;;;;;;;;20.26;51.37;100525.02;123385;1102;104469;-78
2022/06/17 03:38:28;;;;;;;;;;;;;;;20.31;51.40;100532.13;123446;1100;104351;-79
2022/06/17 03:41:01;;;;;;;;;;;;;;;20.36;51.83;100528.52;123349;1102;104456;-78
2022/06/17 03:43:35;;;;;;;;;;;;;;;20.40;52.85;100529.42;123426;1102;104453;-78
2022/06/17 03:46:07;;;;;;;;;;;;;;;20.42;51.68;100525.83;123353;1102;104475;-78
2022/06/17 03:48:40;;;;;;;;;;;;;;;20.45;51.94;100522.28;123365;1102;104450;-78
2022/06/17 03:51:15;;;;;;;;;;;;;;;20.50;53.09;100517.80;123597;1099;104242;-78
2022/06/17 03:53:46;;;;;;;;;;;;;;;20.53;52.64;100523.12;123671;1099;105367;-78
2022/06/17 03:56:18;;;;;;;;;;;;;;;20.58;51.90;100512.44;123626;1099;104676;-78
2022/06/17 03:58:48;;;;;;;;;;;;;;;20.62;52.52;100512.41;123699;1099;104371;-79
2022/06/17 04:01:20;;;;;;;;;;;;;;;20.64;52.58;100512.41;123732;1099;104217;-77
2022/06/17 04:03:59;;;;;;;;;;;;;;;20.67;52.42;100508.88;123898;1098;104287;-77
2022/06/17 04:06:30;;;;;;;;;;;;;;;20.67;51.76;100507.09;124022;1099;104194;-77
2022/06/17 04:09:01;;;;;;;;;;;;;;;20.71;52.35;100506.19;123623;1099;104300;-78
2022/06/17 04:11:36;;;;;;;;;;;;;;;20.73;53.03;100507.05;123504;1099;104425;-78
2022/06/17 04:14:08;;;;;;;;;;;;;;;20.76;53.25;100516.83;123851;1099;104261;-78
2022/06/17 04:16:40;;;;;;;;;;;;;;;20.79;52.15;100509.69;123697;1099;104293;-77
2022/06/17 04:19:15;;;;;;;;;;;;;;;20.82;52.58;100509.67;123746;1099;104194;-77
2022/06/17 04:21:49;;;;;;;;;;;;;;;20.88;53.12;100503.42;124103;1099;104303;-77
2022/06/17 04:24:22;;;;;;;;;;;;;;;20.93;52.63;100498.93;123637;1099;104258;-77
2022/06/17 04:27:13;;;;;;;;;;;;;;;20.97;53.35;100502.45;124023;1099;104360;-78
2022/06/17 04:29:45;;;;;;;;;;;;;;;21.03;52.60;100497.08;124231;1099;104306;-78
2022/06/17 04:32:20;;;;;;;;;;;;;;;21.09;52.37;100491.69;123507;1099;104284;-78
2022/06/17 04:34:53;;;;;;;;;;;;;;;21.15;52.14;100498.77;123647;1099;104277;-77
2022/06/17 04:37:24;;;;;;;;;;;;;;;21.21;52.71;100495.16;123881;1099;104271;-76
2022/06/17 04:40:18;;;;;;;;;;;;;;;21.28;53.10;100502.22;123433;1099;104303;-77
2022/06/17 04:43:14;;;;;;;;;;;;;;;21.33;53.05;100493.29;123618;1099;104268;-77
2022/06/17 04:45:54;;;;;;;;;;;;;;;21.37;53.18;100496.80;123791;1099;104238;-77
2022/06/17 04:48:25;;;;;;;;;;;;;;;21.42;52.57;100484.30;123592;1098;104223;-77
2022/06/17 04:50:55;;;;;;;;;;;;;;;21.46;52.81;100495.85;123577;1099;104290;-76
2022/06/17 04:53:26;;;;;;;;;;;;;;;21.50;53.04;100495.84;124050;1099;104188;-79
2022/06/17 04:56:27;;;;;;;;;;;;;;;21.54;52.30;100491.34;124144;1099;104269;-77
2022/06/17 04:59:27;;;;;;;;;;;;;;;21.57;52.52;100493.98;123922;1099;104216;-79
2022/06/17 05:01:57;;;;;;;;;;;;;;;21.59;52.06;100491.30;123765;1099;104316;-78
2022/06/17 05:05:02;;;;;;;;;;;;;;;21.64;53.46;100493.01;123974;1099;104299;-78
2022/06/17 05:07:34;;;;;;;;;;;;;;;21.68;52.45;100494.76;123952;1099;104280;-78
2022/06/17 05:10:07;;;;;;;;;;;;;;;21.73;53.19;100492.05;124158;1099;104339;-78
2022/06/17 05:12:39;;;;;;;;;;;;;;;21.80;52.27;100492.85;124065;1099;104264;-78
2022/06/17 05:15:11;;;;;;;;;;;;;;;21.85;53.01;100483.91;124065;1099;104239;-78
2022/06/17 05:17:41;;;;;;;;;;;;;;;21.95;52.19;100486.47;123946;1102;104431;-77
2022/06/17 05:20:14;;;;;;;;;;;;;;;22.02;52.03;100477.50;123897;1102;104351;-78
2022/06/17 05:22:49;;;;;;;;;;;;;;;22.07;52.97;100480.98;124089;1102;104418;-77
2022/06/17 05:25:22;;;;;;;;;;;;;;;22.13;51.88;100483.59;124250;1102;104280;-78
2022/06/17 05:27:52;;;;;;;;;;;;;;;22.19;52.63;100477.27;124255;1102;105376;-77
2022/06/17 05:30:24;;;;;;;;;;;;;;;22.22;52.13;100470.11;124448;1101;103207;-77
2022/06/17 05:32:56;;;;;;;;;;;;;;;22.29;52.93;100478.05;125098;1102;104420;-78
2022/06/17 05:35:29;;;;;;;;;;;;;;;22.34;52.37;100473.55;124382;1102;104271;-79
2022/06/17 05:37:59;;;;;;;;;;;;;;;22.39;52.24;100477.04;123971;1102;104175;-78
2022/06/17 05:40:30;;;;;;;;;;;;;;;22.46;52.74;100473.39;123886;1103;104238;-80
2022/06/17 05:43:01;;;;;;;;;;;;;;;22.52;52.01;100472.44;124885;1102;103598;-78
2022/06/17 05:45:34;;;;;;;;;;;;;;;22.58;52.35;100467.87;124476;1102;104342;-81
2022/06/17 05:48:25;;;;;;;;;;;;;;;22.67;52.38;100471.31;124168;1102;104203;-78
2022/06/17 05:51:08;;;;;;;;;;;;;;;22.74;51.76;100464.98;125241;1102;104341;-80
2022/06/17 05:53:54;;;;;;;;;;;;;;;22.83;52.02;100466.61;125155;1102;103851;-79
2022/06/17 05:56:34;;;;;;;;;;;;;;;22.91;52.15;100470.95;124907;1102;103108;-78
2022/06/17 05:59:06;;;;;;;;;;;;;;;22.98;51.83;100466.37;124395;1102;102801;-78
2022/06/17 06:01:42;;;;;;;;;;;;;;;23.05;51.93;100469.85;124579;1102;104828;-79
2022/06/17 06:04:16;;;;;;;;;;;;;;;23.12;51.69;100463.50;124430;1100;103140;-78
2022/06/17 06:06:48;;;;;;;;;;;;;;;23.21;51.35;100466.03;124415;1099;104174;-79
2022/06/17 06:09:18;;;;;;;;;;;;;;;23.28;51.38;100461.44;124585;1099;104168;-78
2022/06/17 06:11:48;;;;;;;;;;;;;;;23.36;51.18;100466.66;124969;1098;104172;-80
2022/06/17 06:14:22;;;;;;;;;;;;;;;23.42;51.28;100462.11;124430;1099;103801;-79
2022/06/17 06:16:51;;;;;;;;;;;;;;;23.50;51.34;100457.48;126304;1099;102255;-79
2022/06/17 06:19:22;;;;;;;;;;;;;;;23.56;50.57;100461.86;124792;1099;104245;-82
2022/06/17 06:21:53;;;;;;;;;;;;;;;23.64;50.87;100454.55;124536;1099;102938;-78
2022/06/17 06:24:25;;;;;;;;;;;;;;;23.74;50.49;100454.37;124544;1102;102545;-79
2022/06/17 06:27:12;;;;;;;;;;;;;;;23.83;50.26;100462.23;125156;1102;102700;-81
2022/06/17 06:29:59;;;;;;;;;;;;;;;23.93;50.02;100458.47;125013;1102;102591;-79
2022/06/17 06:32:31;;;;;;;;;;;;;;;24.03;50.28;100453.83;125430;1102;104291;-80
2022/06/17 06:35:23;;;;;;;;;;;;;;;24.10;50.15;100452.77;124563;1102;104348;-79
2022/06/17 06:38:01;;;;;;;;;;;;;;;24.18;49.98;100456.19;125249;1101;104274;-79
2022/06/17 06:40:33;;;;;;;;;;;;;;;24.23;50.11;100450.70;124411;1102;104371;-79
2022/06/17 06:43:05;;;;;;;;;;;;;;;24.29;49.95;100447.89;124226;1102;102629;-81
2022/06/17 06:46:17;;;;;;;;;;;;;;;24.38;49.77;100441.45;125096;1105;104339;-81
2022/06/17 06:48:54;;;;;;;;;;;;;;;24.49;49.89;100433.17;125123;1106;102792;-80
2022/06/17 06:51:24;;;;;;;;;;;;;;;24.62;49.40;100428.42;125000;1105;103595;-79
2022/06/17 06:53:59;;;;;;;;;;;;;;;24.76;49.88;100434.34;124084;1105;103401;-79
2022/06/17 06:56:35;;;;;;;;;;;;;;;24.93;48.93;100429.47;124340;1103;104501;-79
2022/06/17 06:59:08;;;;;;;;;;;;;;;25.14;49.45;100429.84;125136;1102;104249;-82
2022/06/17 07:01:49;;;;;;;;;;;;;;;25.26;49.05;100431.34;125172;1101;104172;-79
2022/06/17 07:04:22;;;;;;;;;;;;;;;25.40;48.87;100431.88;125226;1102;104335;-80
2022/06/17 07:06:54;;;;;;;;;;;;;;;25.51;48.31;100426.22;125484;1102;103962;-81
2022/06/17 07:09:53;;;;;;;;;;;;;;;;;;;;;
2022/06/17 07:12:35;;;;;;;;;;;;;;;25.78;48.05;100429.05;125503;1102;104223;-79
2022/06/17 07:15:16;;;;;;;;;;;;;;;26.00;48.41;100423.96;125266;1102;103734;-79
2022/06/17 07:18:06;;;;;;;;;;;;;;;;;;;;;
2022/06/17 07:21:27;;;;;;;;;;;;;;;26.29;47.42;100417.71;124309;1102;104418;-78
2022/06/17 07:23:57;;;;;;;;;;;;;;;26.40;47.71;100411.09;124948;1099;104160;-79
2022/06/17 07:26:27;;;;;;;;;;;;;;;26.52;47.47;100414.30;125048;1099;104221;-78
2022/06/17 07:28:58;;;;;;;;;;;;;;;26.60;46.68;100418.55;124560;1099;110558;-78
2022/06/17 07:31:37;;;;;;;;;;;;;;;26.61;46.50;100405.03;125193;1099;104208;-78
2022/06/17 07:34:09;;;;;;;;;;;;;;;26.75;46.10;100401.94;124822;1099;104248;-79
2022/06/17 07:42:22;;;;;;;;;;;;;;;27.15;45.92;100373.66;124602;1102;104521;-79
2022/06/17 07:45:00;;;;;;;;;;;;;;;27.32;45.62;100385.70;125241;1102;104185;-80
2022/06/17 07:47:31;;;;;;;;;;;;;;;27.39;44.61;100387.22;125169;1102;104251;-78
2022/06/17 07:50:03;;;;;;;;;;;;;;;27.45;43.84;100378.91;124244;1102;104290;-78
2022/06/17 07:52:38;;;;;;;;;;;;;;;27.55;44.45;100384.84;125348;1101;104206;-79
2022/06/17 07:55:17;;;;;;;;;;;;;;;27.68;42.82;100377.20;124583;1102;103063;-80
2022/06/17 07:58:11;;;;;;;;;;;;;;;27.82;43.33;100377.55;125459;1102;104149;-79
2022/06/17 08:00:49;;;;;;;;;;;;;;;27.98;41.90;100378.74;124374;1102;104325;-79
2022/06/17 08:03:19;;;;;;;;;;;;;;;28.01;40.13;100383.15;124407;1102;105664;-81
2022/06/17 08:05:53;;;;;;;;;;;;;;;28.11;39.47;100370.17;124172;1102;102960;-78
2022/06/17 08:08:27;;;;;;;;;;;;;;;28.22;38.59;100370.66;124265;1102;104424;-78
2022/06/17 08:10:58;;;;;;;;;;;;;;;28.32;38.97;100374.72;124396;1102;104197;-78
2022/06/17 08:13:36;;;;;;;;;;;;;;;28.47;38.84;100364.24;124391;1102;104232;-78
2022/06/17 08:16:08;;;;;;;;;;;;;;;28.62;39.73;100363.64;124319;1102;104057;-78
2022/06/17 08:18:41;;;;;;;;;;;;;;;28.81;39.27;100352.08;124370;1102;104530;-78
2022/06/17 08:21:12;;;;;;;;;;;;;;;29.01;38.63;100352.09;125501;1102;104285;-78
2022/06/17 08:23:42;;;;;;;;;;;;;;;29.15;37.63;100358.73;124306;1102;104421;-78
2022/06/17 08:26:12;;;;;;;;;;;;;;;29.27;38.70;100360.92;124097;1102;104617;-79
2022/06/17 08:28:45;;;;;;;;;;;;;;;29.37;37.99;100359.58;124224;1102;104306;-79
2022/06/17 08:31:18;;;;;;;;;;;;;;;29.38;37.43;100357.75;124229;1102;104310;-78
2022/06/17 08:33:50;;;;;;;;;;;;;;;29.37;37.27;100356.88;124257;1102;104458;-79
2022/06/17 08:36:22;;;;;;;;;;;;;;;29.36;36.36;100356.95;124309;1102;104329;-80
2022/06/17 08:38:54;;;;;;;;;;;;;;;29.48;35.60;100358.20;125532;1099;103476;-79
2022/06/17 08:41:32;;;;;;;;;;;;;;;29.60;35.61;100354.94;125758;1099;104185;-78
2022/06/17 08:44:21;;;;;;;;;;;;;;;29.92;36.58;100352.61;124725;1099;104341;-78
2022/06/17 08:47:04;;;;;;;;;;;;;;;30.29;36.46;100340.89;124737;1098;104558;-80
2022/06/17 08:49:50;;;;;;;;;;;;;;;30.46;34.06;100331.97;124799;1099;104235;-78
2022/06/17 08:52:35;;;;;;;;;;;;;;;30.69;33.89;100339.89;124844;1099;104249;-82
2022/06/17 08:55:29;;;;;;;;;;;;;;;31.04;34.31;100338.11;125826;1099;104261;-79
2022/06/17 08:58:04;;;;;;;;;;;;;;;31.33;33.37;100336.53;124998;1098;104172;-79
2022/06/17 09:00:43;;;;;;;;;;;;;;;31.47;30.72;100326.80;124929;1099;104268;-79
2022/06/17 09:03:26;;;;;;;;;;;;;;;31.64;32.81;100329.48;127190;1098;101336;-81
2022/06/17 09:06:05;;;;;;;;;;;;;;;31.73;32.54;100333.55;126326;1099;104038;-80
2022/06/17 09:09:04;;;;;;;;;;;;;;;31.72;29.79;100331.78;126490;1099;103592;-80
2022/06/17 09:11:46;;;;;;;;;;;;;;;31.71;31.79;100332.73;125011;1099;102968;-82
2022/06/17 09:14:27;;;;;;;;;;;;;;;31.74;30.80;100324.42;124933;1099;104236;-81
2022/06/17 09:17:06;;;;;;;;;;;;;;;31.84;27.74;100331.09;125773;1099;104242;-81
2022/06/17 09:19:42;;;;;;;;;;;;;;;31.91;28.48;100320.77;125132;1099;104268;-80
2022/06/17 09:22:15;;;;;;;;;;;;;;;32.06;28.50;100327.18;125954;1098;102942;-80
2022/06/17 09:24:51;;;;;;;;;;;;;;;32.16;28.79;100319.41;124591;1100;103665;-79
2022/06/17 09:27:24;;;;;;;;;;;;;;;32.18;27.96;100328.33;124880;1099;102879;-79
2022/06/17 09:29:56;;;;;;;;;;;;;;;32.11;29.02;100322.39;124805;1098;102440;-79
2022/06/17 09:32:30;;;;;;;;;;;;;;;32.03;28.80;100321.92;124815;1099;104159;-78
2022/06/17 09:35:04;;;;;;;;;;;;;;;31.94;28.33;100320.59;124793;1099;104216;-79
2022/06/17 09:37:37;;;;;;;;;;;;;;;31.88;28.55;100326.37;124496;1100;104348;-79
2022/06/17 09:40:11;;;;;;;;;;;;;;;31.73;28.05;100314.55;125025;1099;104243;-78
2022/06/17 09:42:43;;;;;;;;;;;;;;;31.77;28.98;100316.12;124828;1099;104237;-79
2022/06/17 09:45:17;;;;;;;;;;;;;;;31.89;28.60;100318.14;124540;1099;104239;-78
2022/06/17 09:47:50;;;;;;;;;;;;;;;31.98;26.70;100326.75;125102;1099;104460;-79
2022/06/17 09:50:35;;;;;;;;;;;;;;;32.08;27.70;100311.67;124474;1100;104201;-80
2022/06/17 09:53:12;;;;;;;;;;;;;;;32.09;25.38;100313.47;125310;1099;104258;-80
2022/06/17 09:55:48;;;;;;;;;;;;;;;32.07;24.98;100307.23;125015;1099;102406;-80
2022/06/17 09:58:22;;;;;;;;;;;;;;;31.99;24.37;100298.63;124786;1099;104303;-80
2022/06/17 10:01:00;;;;;;;;;;;;;;;31.90;26.12;100303.62;126121;1099;104700;-80
2022/06/17 10:03:35;;;;;;;;;;;;;;;31.77;25.68;100302.55;126155;1098;101793;-79
2022/06/17 10:06:16;;;;;;;;;;;;;;;31.70;25.61;100306.59;124667;1099;103215;-80
2022/06/17 10:08:59;;;;;;;;;;;;;;;31.57;23.11;100311.83;125437;1099;103017;-80
2022/06/17 10:12:04;;;;;;;;;;;;;;;31.65;25.33;100303.23;125217;1099;103067;-80
2022/06/17 10:20:52;;;;;;;;;;;;;;;31.75;24.56;100296.35;124928;1099;104168;-79
2022/06/17 10:23:31;;;;;;;;;;;;;;;31.72;25.36;100286.53;124721;1099;104171;-79
2022/06/17 10:26:07;;;;;;;;;;;;;;;31.62;24.15;100290.74;125088;1099;104252;-78
2022/06/17 10:28:49;;;;;;;;;;;;;;;31.60;24.62;100281.83;124528;1099;104261;-80
2022/06/17 10:31:24;;;;;;;;;;;;;;;31.60;25.20;100276.41;125209;1099;104195;-80
2022/06/17 10:33:55;;;;;;;;;;;;;;;31.59;24.67;100271.93;125887;1099;104169;-79
2022/06/17 10:36:28;;;;;;;;;;;;;;;31.63;24.79;100272.62;124974;1099;104329;-78
2022/06/17 10:39:01;;;;;;;;;;;;;;;31.63;25.00;100256.35;124681;1099;104313;-80
2022/06/17 10:41:40;;;;;;;;;;;;;;;31.63;25.32;100250.93;124862;1099;104168;-80
2022/06/17 10:44:15;;;;;;;;;;;;;;;31.63;24.97;100249.08;124442;1099;104332;-78
2022/06/17 10:46:47;;;;;;;;;;;;;;;31.67;25.29;100233.53;124584;1099;102646;-81
2022/06/17 10:49:25;;;;;;;;;;;;;;;31.70;25.13;100244.21;125914;1099;104174;-80
2022/06/17 10:55:24;;;;;;;;;;;;;;;31.63;25.08;100242.80;125202;1099;104169;-79
2022/06/17 10:58:15;;;;;;;;;;;;;;;31.66;25.54;100239.91;124550;1102;104357;-79
2022/06/17 11:00:59;;;;;;;;;;;;;;;31.68;25.74;100249.72;124394;1102;104462;-79
2022/06/17 11:03:34;;;;;;;;;;;;;;;31.64;25.87;100231.86;124273;1102;102229;-77
2022/06/17 11:06:13;;;;;;;;;;;;;;;31.62;25.98;100233.80;124446;1102;104230;-78
2022/06/17 11:08:53;;;;;;;;;;;;;;;31.48;25.61;100237.24;124509;1102;104239;-78
2022/06/17 11:14:25;;;;;;;;;;;;;;;31.36;26.48;100237.92;125301;1101;110032;-81
2022/06/17 11:16:58;;;;;;;;;;;;;;;31.36;26.43;100248.77;124405;1102;104168;-79
2022/06/17 11:19:30;;;;;;;;;;;;;;;31.22;25.13;100243.23;124531;1102;104175;-80
2022/06/17 11:22:03;;;;;;;;;;;;;;;31.13;25.65;100240.05;125258;1100;102578;-79
2022/06/17 11:24:40;;;;;;;;;;;;;;;31.05;25.90;100236.88;125254;1102;104159;-80
2022/06/17 11:27:31;;;;;;;;;;;;;;;31.05;26.40;100236.88;125233;1102;104204;-79
2022/06/17 11:30:27;;;;;;;;;;;;;;;31.07;26.34;100240.41;125633;1099;104185;-81
2022/06/17 11:33:21;;;;;;;;;;;;;;;31.05;26.21;100236.88;125300;1102;104401;-81
2022/06/17 11:35:58;;;;;;;;;;;;;;;31.07;25.56;100229.56;125406;1102;102643;-80
2022/06/17 11:38:37;;;;;;;;;;;;;;;31.05;26.79;100228.75;125402;1102;102133;-79
2022/06/17 11:41:22;;;;;;;;;;;;;;;31.05;26.97;100236.02;124454;1102;104233;-79
2022/06/17 11:43:57;;;;;;;;;;;;;;;30.90;27.41;100229.54;124433;1102;104412;-78
2022/06/17 11:46:32;;;;;;;;;;;;;;;30.78;27.85;100228.38;124426;1102;104270;-79
2022/06/17 11:49:09;;;;;;;;;;;;;;;30.77;27.45;100232.90;125089;1102;104416;-77
2022/06/17 11:51:47;;;;;;;;;;;;;;;30.79;28.14;100222.88;124522;1102;102744;-79
2022/06/17 11:54:36;;;;;;;;;;;;;;;;;;;;;
2022/06/17 11:57:20;;;;;;;;;;;;;;;30.89;27.64;100216.98;125440;1102;104169;-79
2022/06/17 12:00:20;;;;;;;;;;;;;;;;;;;;;
2022/06/17 12:03:40;;;;;;;;;;;;;;;30.61;27.78;100221.14;125290;1102;102354;-78
2022/06/17 12:06:23;;;;;;;;;;;;;;;30.69;27.95;100220.73;124494;1100;102764;-79
2022/06/17 12:09:12;;;;;;;;;;;;;;;30.71;27.86;100216.97;126216;1102;102688;-79
2022/06/17 12:11:50;;;;;;;;;;;;;;;30.81;28.02;100217.38;125360;1102;104203;-79
2022/06/17 12:14:28;;;;;;;;;;;;;;;30.91;28.48;100217.76;125500;1098;102583;-78
2022/06/17 12:17:25;;;;;;;;;;;;;;;31.10;28.70;100215.82;124824;1099;104242;-79
2022/06/17 12:20:10;;;;;;;;;;;;;;;31.33;28.69;100210.98;124395;1102;104153;-80
2022/06/17 12:22:46;;;;;;;;;;;;;;;31.42;27.73;100218.61;124637;1102;103501;-79
2022/06/17 12:25:36;;;;;;;;;;;;;;;31.31;27.94;100207.50;125078;1103;104153;-79
2022/06/17 12:28:27;;;;;;;;;;;;;;;31.22;28.15;100205.30;125125;1102;104629;-80
2022/06/17 12:31:17;;;;;;;;;;;;;;;31.00;27.50;100214.59;125300;1102;104418;-81
2022/06/17 12:34:08;;;;;;;;;;;;;;;30.73;27.99;100212.38;125142;1102;104597;-80
2022/06/17 12:36:42;;;;;;;;;;;;;;;30.76;28.04;100216.73;125370;1102;104226;-80
2022/06/17 12:39:16;;;;;;;;;;;;;;;30.58;27.75;100235.70;125122;1102;104339;-80
2022/06/17 12:41:58;;;;;;;;;;;;;;;30.09;28.42;100222.82;124289;1102;104450;-78
2022/06/17 12:44:43;;;;;;;;;;;;;;;29.69;28.62;100230.15;124293;1102;104299;-79
2022/06/17 12:47:18;;;;;;;;;;;;;;;29.28;28.50;100241.10;124332;1102;104353;-79
2022/06/17 12:55:49;;;;;;;;;;;;;;;28.31;46.11;100238.09;126133;1102;103388;-78
2022/06/17 12:58:30;;;;;;;;;;;;;;;27.81;34.41;100222.12;124375;1102;103105;-78
2022/06/17 13:01:04;;;;;;;;;;;;;;;27.49;34.48;100229.68;124446;1102;104236;-78
2022/06/17 13:03:45;;;;;;;;;;;;;;;27.40;34.88;100238.12;125185;1102;104182;-79
2022/06/17 13:06:22;;;;;;;;;;;;;;;27.33;33.76;100236.58;125089;1102;103778;-79
2022/06/17 13:08:57;;;;;;;;;;;;;;;27.44;33.48;100234.34;124279;1102;104169;-77
2022/06/17 13:11:31;;;;;;;;;;;;;;;27.64;33.83;100227.31;124365;1102;104325;-78
2022/06/17 13:14:18;;;;;;;;;;;;;;;27.82;33.03;100221.20;124341;1102;104774;-77
2022/06/17 13:16:52;;;;;;;;;;;;;;;27.97;31.99;100222.41;124478;1098;104332;-79
2022/06/17 13:19:29;;;;;;;;;;;;;;;28.09;32.82;100207.55;125435;1099;104563;-79
2022/06/17 13:22:03;;;;;;;;;;;;;;;28.26;32.42;100210.41;124508;1099;103057;-79
2022/06/17 13:24:43;;;;;;;;;;;;;;;28.22;31.87;100206.11;124460;1099;102370;-78
2022/06/17 13:27:18;;;;;;;;;;;;;;;28.11;31.67;100203.86;125179;1099;104181;-81
2022/06/17 13:29:51;;;;;;;;;;;;;;;28.02;31.86;100209.63;124587;1099;104236;-79
2022/06/17 13:32:28;;;;;;;;;;;;;;;28.00;31.68;100210.63;125518;1098;104207;-79
2022/06/17 13:35:13;;;;;;;;;;;;;;;28.08;31.48;100213.87;124772;1099;104297;-80
2022/06/17 13:37:48;;;;;;;;;;;;;;;28.17;31.02;100224.28;125396;1098;104181;-78